sensor_id;sensor_type;location;lat;lon;timestamp;P1;durP1;ratioP1;P2;durP2;ratioP2
67804;SDS011;54603;45.638;11.714;2023-02-11T00:00:03;13.60;;;10.40;;
67804;SDS011;54603;45.638;11.714;2023-02-11T00:02:30;13.80;;;9.90;;
67804;SDS011;54603;45.638;11.714;2023-02-11T00:04:57;14.50;;;10.10;;
67804;SDS011;54603;45.638;11.714;2023-02-11T00:07:23;14.60;;;10.80;;
67804;SDS011;54603;45.638;11.714;2023-02-11T00:09:48;13.30;;;10.00;;
67804;SDS011;54603;45.638;11.714;2023-02-11T00:12:14;13.20;;;10.00;;
67804;SDS011;54603;45.638;11.714;2023-02-11T00:14:40;13.80;;;9.50;;
67804;SDS011;54603;45.638;11.714;2023-02-11T00:17:05;13.90;;;10.10;;
67804;SDS011;54603;45.638;11.714;2023-02-11T00:19:31;12.70;;;10.00;;
67804;SDS011;54603;45.638;11.714;2023-02-11T00:21:56;13.30;;;10.10;;
67804;SDS011;54603;45.638;11.714;2023-02-11T00:24:22;13.50;;;9.90;;
67804;SDS011;54603;45.638;11.714;2023-02-11T00:26:47;11.80;;;9.60;;
67804;SDS011;54603;45.638;11.714;2023-02-11T00:29:13;14.60;;;10.00;;
67804;SDS011;54603;45.638;11.714;2023-02-11T00:31:39;13.90;;;10.40;;
67804;SDS011;54603;45.638;11.714;2023-02-11T00:34:04;14.50;;;10.30;;
67804;SDS011;54603;45.638;11.714;2023-02-11T00:36:30;13.70;;;10.00;;
67804;SDS011;54603;45.638;11.714;2023-02-11T00:38:56;13.60;;;9.90;;
67804;SDS011;54603;45.638;11.714;2023-02-11T00:41:22;13.10;;;9.40;;
67804;SDS011;54603;45.638;11.714;2023-02-11T00:43:49;15.60;;;10.40;;
67804;SDS011;54603;45.638;11.714;2023-02-11T00:46:15;13.20;;;10.10;;
67804;SDS011;54603;45.638;11.714;2023-02-11T00:48:40;13.50;;;10.20;;
67804;SDS011;54603;45.638;11.714;2023-02-11T00:51:06;12.70;;;10.00;;
67804;SDS011;54603;45.638;11.714;2023-02-11T00:53:33;12.50;;;9.60;;
67804;SDS011;54603;45.638;11.714;2023-02-11T00:55:59;14.50;;;10.10;;
67804;SDS011;54603;45.638;11.714;2023-02-11T00:58:25;13.80;;;10.00;;
67804;SDS011;54603;45.638;11.714;2023-02-11T01:00:52;12.40;;;9.70;;
67804;SDS011;54603;45.638;11.714;2023-02-11T01:06:40;11.90;;;9.10;;
67804;SDS011;54603;45.638;11.714;2023-02-11T01:09:06;13.00;;;10.00;;
67804;SDS011;54603;45.638;11.714;2023-02-11T01:11:31;12.40;;;9.90;;
67804;SDS011;54603;45.638;11.714;2023-02-11T01:13:57;12.90;;;9.90;;
67804;SDS011;54603;45.638;11.714;2023-02-11T01:16:22;13.80;;;10.30;;
67804;SDS011;54603;45.638;11.714;2023-02-11T01:18:54;14.00;;;9.90;;
67804;SDS011;54603;45.638;11.714;2023-02-11T01:21:20;14.20;;;10.10;;
67804;SDS011;54603;45.638;11.714;2023-02-11T01:23:46;11.90;;;9.90;;
67804;SDS011;54603;45.638;11.714;2023-02-11T01:26:11;12.70;;;10.00;;
67804;SDS011;54603;45.638;11.714;2023-02-11T01:28:37;13.80;;;10.30;;
67804;SDS011;54603;45.638;11.714;2023-02-11T01:31:03;14.40;;;9.70;;
67804;SDS011;54603;45.638;11.714;2023-02-11T01:33:28;14.70;;;10.50;;
67804;SDS011;54603;45.638;11.714;2023-02-11T01:35:54;14.20;;;9.60;;
67804;SDS011;54603;45.638;11.714;2023-02-11T01:38:21;13.50;;;10.10;;
67804;SDS011;54603;45.638;11.714;2023-02-11T01:40:58;14.40;;;10.60;;
67804;SDS011;54603;45.638;11.714;2023-02-11T01:43:27;13.40;;;9.90;;
67804;SDS011;54603;45.638;11.714;2023-02-11T01:45:57;14.00;;;10.20;;
67804;SDS011;54603;45.638;11.714;2023-02-11T01:48:35;15.50;;;10.60;;
67804;SDS011;54603;45.638;11.714;2023-02-11T01:51:17;15.60;;;10.40;;
67804;SDS011;54603;45.638;11.714;2023-02-11T01:53:46;13.20;;;10.10;;
67804;SDS011;54603;45.638;11.714;2023-02-11T01:56:31;14.30;;;10.20;;
67804;SDS011;54603;45.638;11.714;2023-02-11T01:59:19;12.30;;;9.90;;
67804;SDS011;54603;45.638;11.714;2023-02-11T02:01:50;13.80;;;10.30;;
67804;SDS011;54603;45.638;11.714;2023-02-11T02:06:55;13.90;;;9.20;;
67804;SDS011;54603;45.638;11.714;2023-02-11T02:09:25;13.90;;;10.10;;
67804;SDS011;54603;45.638;11.714;2023-02-11T02:11:53;14.50;;;10.30;;
67804;SDS011;54603;45.638;11.714;2023-02-11T02:14:18;14.80;;;10.80;;
67804;SDS011;54603;45.638;11.714;2023-02-11T02:16:44;12.30;;;10.10;;
67804;SDS011;54603;45.638;11.714;2023-02-11T02:19:23;14.00;;;11.10;;
67804;SDS011;54603;45.638;11.714;2023-02-11T02:24:57;16.40;;;10.60;;
67804;SDS011;54603;45.638;11.714;2023-02-11T02:35:38;13.30;;;10.10;;
67804;SDS011;54603;45.638;11.714;2023-02-11T02:38:26;13.50;;;10.40;;
67804;SDS011;54603;45.638;11.714;2023-02-11T02:43:28;14.90;;;10.60;;
67804;SDS011;54603;45.638;11.714;2023-02-11T02:45:54;16.40;;;11.10;;
67804;SDS011;54603;45.638;11.714;2023-02-11T02:48:24;14.70;;;10.70;;
67804;SDS011;54603;45.638;11.714;2023-02-11T02:51:38;13.60;;;10.30;;
67804;SDS011;54603;45.638;11.714;2023-02-11T02:56:39;14.00;;;10.20;;
67804;SDS011;54603;45.638;11.714;2023-02-11T03:05:29;14.90;;;10.80;;
67804;SDS011;54603;45.638;11.714;2023-02-11T03:07:52;14.30;;;10.80;;
67804;SDS011;54603;45.638;11.714;2023-02-11T03:10:30;14.50;;;10.70;;
67804;SDS011;54603;45.638;11.714;2023-02-11T03:12:57;23.70;;;10.50;;
67804;SDS011;54603;45.638;11.714;2023-02-11T03:15:23;15.70;;;10.90;;
67804;SDS011;54603;45.638;11.714;2023-02-11T03:17:51;16.60;;;11.10;;
67804;SDS011;54603;45.638;11.714;2023-02-11T03:20:19;14.20;;;10.40;;
67804;SDS011;54603;45.638;11.714;2023-02-11T03:25:17;14.20;;;10.10;;
67804;SDS011;54603;45.638;11.714;2023-02-11T03:27:51;14.80;;;10.90;;
67804;SDS011;54603;45.638;11.714;2023-02-11T03:30:20;15.20;;;10.40;;
67804;SDS011;54603;45.638;11.714;2023-02-11T03:32:56;16.30;;;11.40;;
67804;SDS011;54603;45.638;11.714;2023-02-11T03:35:34;16.20;;;11.40;;
67804;SDS011;54603;45.638;11.714;2023-02-11T03:38:11;15.70;;;10.80;;
67804;SDS011;54603;45.638;11.714;2023-02-11T03:40:42;15.50;;;11.20;;
67804;SDS011;54603;45.638;11.714;2023-02-11T03:45:45;15.40;;;11.00;;
67804;SDS011;54603;45.638;11.714;2023-02-11T03:48:19;14.40;;;10.90;;
67804;SDS011;54603;45.638;11.714;2023-02-11T03:50:49;15.60;;;11.00;;
67804;SDS011;54603;45.638;11.714;2023-02-11T03:53:16;14.80;;;11.40;;
67804;SDS011;54603;45.638;11.714;2023-02-11T03:55:42;14.40;;;11.60;;
67804;SDS011;54603;45.638;11.714;2023-02-11T03:58:08;15.20;;;11.10;;
67804;SDS011;54603;45.638;11.714;2023-02-11T04:00:38;17.10;;;11.70;;
67804;SDS011;54603;45.638;11.714;2023-02-11T04:03:05;14.60;;;11.30;;
67804;SDS011;54603;45.638;11.714;2023-02-11T04:05:32;17.00;;;11.50;;
67804;SDS011;54603;45.638;11.714;2023-02-11T04:07:57;15.20;;;11.00;;
67804;SDS011;54603;45.638;11.714;2023-02-11T04:10:23;15.80;;;10.60;;
67804;SDS011;54603;45.638;11.714;2023-02-11T04:12:48;16.10;;;11.40;;
67804;SDS011;54603;45.638;11.714;2023-02-11T04:15:14;15.20;;;11.20;;
67804;SDS011;54603;45.638;11.714;2023-02-11T04:17:39;16.10;;;11.00;;
67804;SDS011;54603;45.638;11.714;2023-02-11T04:20:05;13.80;;;10.40;;
67804;SDS011;54603;45.638;11.714;2023-02-11T04:22:31;15.90;;;11.50;;
67804;SDS011;54603;45.638;11.714;2023-02-11T04:24:57;13.40;;;10.80;;
67804;SDS011;54603;45.638;11.714;2023-02-11T04:27:22;15.40;;;11.30;;
67804;SDS011;54603;45.638;11.714;2023-02-11T04:29:48;15.90;;;11.60;;
67804;SDS011;54603;45.638;11.714;2023-02-11T04:32:14;12.90;;;10.50;;
67804;SDS011;54603;45.638;11.714;2023-02-11T04:34:39;15.40;;;10.30;;
67804;SDS011;54603;45.638;11.714;2023-02-11T04:37:05;15.20;;;11.30;;
67804;SDS011;54603;45.638;11.714;2023-02-11T04:39:31;15.40;;;11.00;;
67804;SDS011;54603;45.638;11.714;2023-02-11T04:41:56;13.70;;;11.20;;
67804;SDS011;54603;45.638;11.714;2023-02-11T04:44:22;14.30;;;11.10;;
67804;SDS011;54603;45.638;11.714;2023-02-11T04:46:47;15.90;;;11.30;;
67804;SDS011;54603;45.638;11.714;2023-02-11T04:49:13;14.40;;;11.20;;
67804;SDS011;54603;45.638;11.714;2023-02-11T04:51:39;15.00;;;11.10;;
67804;SDS011;54603;45.638;11.714;2023-02-11T04:54:05;14.10;;;10.70;;
67804;SDS011;54603;45.638;11.714;2023-02-11T04:56:31;16.90;;;11.00;;
67804;SDS011;54603;45.638;11.714;2023-02-11T04:58:56;16.20;;;10.80;;
67804;SDS011;54603;45.638;11.714;2023-02-11T05:01:22;14.90;;;10.80;;
67804;SDS011;54603;45.638;11.714;2023-02-11T05:03:47;13.60;;;10.70;;
67804;SDS011;54603;45.638;11.714;2023-02-11T05:06:13;13.60;;;10.20;;
67804;SDS011;54603;45.638;11.714;2023-02-11T05:08:39;15.30;;;11.10;;
67804;SDS011;54603;45.638;11.714;2023-02-11T05:11:04;15.50;;;10.90;;
67804;SDS011;54603;45.638;11.714;2023-02-11T05:13:30;14.10;;;10.60;;
67804;SDS011;54603;45.638;11.714;2023-02-11T05:15:56;13.40;;;10.80;;
67804;SDS011;54603;45.638;11.714;2023-02-11T05:18:22;16.10;;;11.00;;
67804;SDS011;54603;45.638;11.714;2023-02-11T05:20:47;14.90;;;11.00;;
67804;SDS011;54603;45.638;11.714;2023-02-11T05:23:13;13.50;;;10.60;;
67804;SDS011;54603;45.638;11.714;2023-02-11T05:25:38;14.80;;;10.90;;
67804;SDS011;54603;45.638;11.714;2023-02-11T05:28:04;13.90;;;10.60;;
67804;SDS011;54603;45.638;11.714;2023-02-11T05:30:30;14.30;;;10.80;;
67804;SDS011;54603;45.638;11.714;2023-02-11T05:32:56;15.40;;;10.80;;
67804;SDS011;54603;45.638;11.714;2023-02-11T05:35:21;14.30;;;10.90;;
67804;SDS011;54603;45.638;11.714;2023-02-11T05:37:47;15.50;;;11.00;;
67804;SDS011;54603;45.638;11.714;2023-02-11T05:40:13;14.00;;;10.50;;
67804;SDS011;54603;45.638;11.714;2023-02-11T05:42:38;16.40;;;11.30;;
67804;SDS011;54603;45.638;11.714;2023-02-11T05:45:04;17.70;;;11.40;;
67804;SDS011;54603;45.638;11.714;2023-02-11T05:47:31;15.70;;;10.70;;
67804;SDS011;54603;45.638;11.714;2023-02-11T05:49:56;14.80;;;10.50;;
67804;SDS011;54603;45.638;11.714;2023-02-11T05:52:22;15.20;;;10.90;;
67804;SDS011;54603;45.638;11.714;2023-02-11T05:54:48;13.50;;;10.40;;
67804;SDS011;54603;45.638;11.714;2023-02-11T05:57:14;15.60;;;10.90;;
67804;SDS011;54603;45.638;11.714;2023-02-11T05:59:40;14.60;;;11.10;;
67804;SDS011;54603;45.638;11.714;2023-02-11T06:02:06;17.20;;;10.90;;
67804;SDS011;54603;45.638;11.714;2023-02-11T06:04:32;14.80;;;11.30;;
67804;SDS011;54603;45.638;11.714;2023-02-11T06:06:58;13.20;;;10.40;;
67804;SDS011;54603;45.638;11.714;2023-02-11T06:09:24;14.10;;;10.30;;
67804;SDS011;54603;45.638;11.714;2023-02-11T06:11:50;13.80;;;10.10;;
67804;SDS011;54603;45.638;11.714;2023-02-11T06:14:16;13.50;;;10.80;;
67804;SDS011;54603;45.638;11.714;2023-02-11T06:16:41;15.80;;;10.90;;
67804;SDS011;54603;45.638;11.714;2023-02-11T06:19:07;13.40;;;10.60;;
67804;SDS011;54603;45.638;11.714;2023-02-11T06:21:32;13.70;;;10.60;;
67804;SDS011;54603;45.638;11.714;2023-02-11T06:23:58;15.90;;;10.80;;
67804;SDS011;54603;45.638;11.714;2023-02-11T06:26:24;14.90;;;10.20;;
67804;SDS011;54603;45.638;11.714;2023-02-11T06:28:49;13.20;;;10.40;;
67804;SDS011;54603;45.638;11.714;2023-02-11T06:31:15;13.50;;;10.40;;
67804;SDS011;54603;45.638;11.714;2023-02-11T06:33:41;14.40;;;10.70;;
67804;SDS011;54603;45.638;11.714;2023-02-11T06:36:16;17.30;;;10.70;;
67804;SDS011;54603;45.638;11.714;2023-02-11T06:38:44;14.50;;;10.30;;
67804;SDS011;54603;45.638;11.714;2023-02-11T06:41:10;13.60;;;10.60;;
67804;SDS011;54603;45.638;11.714;2023-02-11T06:43:38;12.90;;;10.10;;
67804;SDS011;54603;45.638;11.714;2023-02-11T06:46:05;12.80;;;9.90;;
67804;SDS011;54603;45.638;11.714;2023-02-11T06:48:31;14.40;;;10.40;;
67804;SDS011;54603;45.638;11.714;2023-02-11T06:51:00;12.70;;;10.30;;
67804;SDS011;54603;45.638;11.714;2023-02-11T06:53:27;14.20;;;10.10;;
67804;SDS011;54603;45.638;11.714;2023-02-11T06:55:53;14.50;;;10.20;;
67804;SDS011;54603;45.638;11.714;2023-02-11T06:58:20;14.80;;;10.30;;
67804;SDS011;54603;45.638;11.714;2023-02-11T07:00:45;13.90;;;10.50;;
67804;SDS011;54603;45.638;11.714;2023-02-11T07:03:11;13.40;;;9.30;;
67804;SDS011;54603;45.638;11.714;2023-02-11T07:05:37;13.10;;;10.10;;
67804;SDS011;54603;45.638;11.714;2023-02-11T07:08:09;14.40;;;10.10;;
67804;SDS011;54603;45.638;11.714;2023-02-11T07:10:36;12.70;;;9.60;;
67804;SDS011;54603;45.638;11.714;2023-02-11T07:13:01;12.20;;;9.80;;
67804;SDS011;54603;45.638;11.714;2023-02-11T07:15:27;14.80;;;9.30;;
67804;SDS011;54603;45.638;11.714;2023-02-11T07:17:52;14.60;;;9.50;;
67804;SDS011;54603;45.638;11.714;2023-02-11T07:20:18;11.70;;;9.00;;
67804;SDS011;54603;45.638;11.714;2023-02-11T07:22:43;14.00;;;9.60;;
67804;SDS011;54603;45.638;11.714;2023-02-11T07:25:09;12.30;;;9.00;;
67804;SDS011;54603;45.638;11.714;2023-02-11T07:27:34;13.20;;;9.50;;
67804;SDS011;54603;45.638;11.714;2023-02-11T07:30:01;13.10;;;9.60;;
67804;SDS011;54603;45.638;11.714;2023-02-11T07:32:30;12.70;;;9.80;;
67804;SDS011;54603;45.638;11.714;2023-02-11T07:34:56;12.10;;;9.00;;
67804;SDS011;54603;45.638;11.714;2023-02-11T07:37:22;15.60;;;9.90;;
67804;SDS011;54603;45.638;11.714;2023-02-11T07:39:51;11.70;;;8.90;;
67804;SDS011;54603;45.638;11.714;2023-02-11T07:42:25;12.00;;;8.60;;
67804;SDS011;54603;45.638;11.714;2023-02-11T07:44:51;15.30;;;9.00;;
67804;SDS011;54603;45.638;11.714;2023-02-11T07:47:18;12.00;;;9.70;;
67804;SDS011;54603;45.638;11.714;2023-02-11T07:49:47;12.20;;;9.20;;
67804;SDS011;54603;45.638;11.714;2023-02-11T07:52:18;12.50;;;9.10;;
67804;SDS011;54603;45.638;11.714;2023-02-11T07:54:46;14.00;;;9.90;;
67804;SDS011;54603;45.638;11.714;2023-02-11T07:57:13;12.70;;;9.10;;
67804;SDS011;54603;45.638;11.714;2023-02-11T07:59:48;14.20;;;9.00;;
67804;SDS011;54603;45.638;11.714;2023-02-11T08:02:15;11.10;;;8.80;;
67804;SDS011;54603;45.638;11.714;2023-02-11T08:04:47;12.40;;;9.30;;
67804;SDS011;54603;45.638;11.714;2023-02-11T08:07:14;12.00;;;9.10;;
67804;SDS011;54603;45.638;11.714;2023-02-11T08:09:40;10.40;;;8.40;;
67804;SDS011;54603;45.638;11.714;2023-02-11T08:12:06;12.10;;;9.30;;
67804;SDS011;54603;45.638;11.714;2023-02-11T08:14:33;10.50;;;8.40;;
67804;SDS011;54603;45.638;11.714;2023-02-11T08:17:02;11.90;;;9.30;;
67804;SDS011;54603;45.638;11.714;2023-02-11T08:19:29;11.70;;;8.80;;
67804;SDS011;54603;45.638;11.714;2023-02-11T08:21:55;11.00;;;8.60;;
67804;SDS011;54603;45.638;11.714;2023-02-11T08:24:25;12.90;;;9.50;;
67804;SDS011;54603;45.638;11.714;2023-02-11T08:26:50;13.50;;;9.50;;
67804;SDS011;54603;45.638;11.714;2023-02-11T08:29:16;13.50;;;8.50;;
67804;SDS011;54603;45.638;11.714;2023-02-11T08:31:44;13.80;;;8.80;;
67804;SDS011;54603;45.638;11.714;2023-02-11T08:34:11;10.60;;;8.60;;
67804;SDS011;54603;45.638;11.714;2023-02-11T08:36:39;12.50;;;10.00;;
67804;SDS011;54603;45.638;11.714;2023-02-11T08:39:07;14.50;;;10.20;;
67804;SDS011;54603;45.638;11.714;2023-02-11T08:41:36;14.70;;;10.00;;
67804;SDS011;54603;45.638;11.714;2023-02-11T08:44:01;13.30;;;10.20;;
67804;SDS011;54603;45.638;11.714;2023-02-11T08:46:27;14.40;;;10.20;;
67804;SDS011;54603;45.638;11.714;2023-02-11T08:48:52;16.80;;;10.50;;
67804;SDS011;54603;45.638;11.714;2023-02-11T08:51:19;14.40;;;9.90;;
67804;SDS011;54603;45.638;11.714;2023-02-11T08:53:47;17.50;;;11.20;;
67804;SDS011;54603;45.638;11.714;2023-02-11T08:56:13;17.80;;;10.90;;
67804;SDS011;54603;45.638;11.714;2023-02-11T08:58:40;13.70;;;10.50;;
67804;SDS011;54603;45.638;11.714;2023-02-11T09:01:10;15.00;;;11.10;;
67804;SDS011;54603;45.638;11.714;2023-02-11T09:03:41;23.10;;;11.30;;
67804;SDS011;54603;45.638;11.714;2023-02-11T09:06:07;18.00;;;10.70;;
67804;SDS011;54603;45.638;11.714;2023-02-11T09:08:37;20.10;;;11.30;;
67804;SDS011;54603;45.638;11.714;2023-02-11T09:11:04;16.80;;;11.50;;
67804;SDS011;54603;45.638;11.714;2023-02-11T09:13:31;16.60;;;10.30;;
67804;SDS011;54603;45.638;11.714;2023-02-11T09:15:57;16.70;;;10.70;;
67804;SDS011;54603;45.638;11.714;2023-02-11T09:18:23;14.50;;;10.40;;
67804;SDS011;54603;45.638;11.714;2023-02-11T09:20:49;15.50;;;10.60;;
67804;SDS011;54603;45.638;11.714;2023-02-11T09:23:15;14.50;;;10.30;;
67804;SDS011;54603;45.638;11.714;2023-02-11T09:25:41;17.70;;;11.20;;
67804;SDS011;54603;45.638;11.714;2023-02-11T09:28:07;18.80;;;10.40;;
67804;SDS011;54603;45.638;11.714;2023-02-11T09:30:33;18.10;;;10.30;;
67804;SDS011;54603;45.638;11.714;2023-02-11T09:33:01;18.00;;;11.00;;
67804;SDS011;54603;45.638;11.714;2023-02-11T09:35:27;16.30;;;10.60;;
67804;SDS011;54603;45.638;11.714;2023-02-11T09:37:52;18.00;;;11.20;;
67804;SDS011;54603;45.638;11.714;2023-02-11T09:40:18;16.70;;;10.40;;
67804;SDS011;54603;45.638;11.714;2023-02-11T09:42:45;18.80;;;11.00;;
67804;SDS011;54603;45.638;11.714;2023-02-11T09:45:19;16.20;;;10.00;;
67804;SDS011;54603;45.638;11.714;2023-02-11T09:47:55;21.00;;;11.60;;
67804;SDS011;54603;45.638;11.714;2023-02-11T09:50:34;19.90;;;11.30;;
67804;SDS011;54603;45.638;11.714;2023-02-11T09:56:01;16.80;;;10.70;;
67804;SDS011;54603;45.638;11.714;2023-02-11T09:58:33;17.40;;;11.20;;
67804;SDS011;54603;45.638;11.714;2023-02-11T10:01:20;15.50;;;11.00;;
67804;SDS011;54603;45.638;11.714;2023-02-11T10:09:36;17.30;;;11.30;;
67804;SDS011;54603;45.638;11.714;2023-02-11T10:12:25;15.30;;;10.60;;
67804;SDS011;54603;45.638;11.714;2023-02-11T10:15:02;17.70;;;11.20;;
67804;SDS011;54603;45.638;11.714;2023-02-11T10:20:35;16.20;;;10.80;;
67804;SDS011;54603;45.638;11.714;2023-02-11T10:23:09;17.20;;;11.20;;
67804;SDS011;54603;45.638;11.714;2023-02-11T10:25:41;17.00;;;11.30;;
67804;SDS011;54603;45.638;11.714;2023-02-11T10:28:10;16.70;;;10.90;;
67804;SDS011;54603;45.638;11.714;2023-02-11T10:33:39;14.30;;;11.00;;
67804;SDS011;54603;45.638;11.714;2023-02-11T10:36:11;18.00;;;10.50;;
67804;SDS011;54603;45.638;11.714;2023-02-11T10:38:37;23.30;;;10.80;;
67804;SDS011;54603;45.638;11.714;2023-02-11T10:41:03;15.40;;;10.60;;
67804;SDS011;54603;45.638;11.714;2023-02-11T10:43:30;15.50;;;10.60;;
67804;SDS011;54603;45.638;11.714;2023-02-11T10:45:57;16.10;;;10.60;;
67804;SDS011;54603;45.638;11.714;2023-02-11T10:51:25;20.10;;;10.20;;
67804;SDS011;54603;45.638;11.714;2023-02-11T10:56:37;16.40;;;10.60;;
67804;SDS011;54603;45.638;11.714;2023-02-11T10:59:13;18.70;;;11.10;;
67804;SDS011;54603;45.638;11.714;2023-02-11T11:02:22;15.80;;;10.40;;
67804;SDS011;54603;45.638;11.714;2023-02-11T11:04:49;15.40;;;10.10;;
67804;SDS011;54603;45.638;11.714;2023-02-11T11:07:20;16.80;;;10.20;;
67804;SDS011;54603;45.638;11.714;2023-02-11T11:09:59;16.50;;;10.50;;
67804;SDS011;54603;45.638;11.714;2023-02-11T11:14:58;16.40;;;10.40;;
67804;SDS011;54603;45.638;11.714;2023-02-11T11:17:27;20.60;;;10.40;;
67804;SDS011;54603;45.638;11.714;2023-02-11T11:22:47;19.10;;;10.40;;
67804;SDS011;54603;45.638;11.714;2023-02-11T11:25:23;19.40;;;11.80;;
67804;SDS011;54603;45.638;11.714;2023-02-11T11:27:52;21.50;;;10.20;;
67804;SDS011;54603;45.638;11.714;2023-02-11T11:30:19;21.20;;;11.30;;
67804;SDS011;54603;45.638;11.714;2023-02-11T11:32:45;19.70;;;12.40;;
67804;SDS011;54603;45.638;11.714;2023-02-11T11:35:19;18.40;;;13.60;;
67804;SDS011;54603;45.638;11.714;2023-02-11T11:37:51;21.30;;;13.90;;
67804;SDS011;54603;45.638;11.714;2023-02-11T11:40:34;19.90;;;14.30;;
67804;SDS011;54603;45.638;11.714;2023-02-11T11:45:37;21.90;;;14.70;;
67804;SDS011;54603;45.638;11.714;2023-02-11T11:48:05;21.60;;;15.00;;
67804;SDS011;54603;45.638;11.714;2023-02-11T11:50:46;21.80;;;15.30;;
67804;SDS011;54603;45.638;11.714;2023-02-11T11:53:20;19.50;;;15.50;;
67804;SDS011;54603;45.638;11.714;2023-02-11T11:56:15;20.80;;;14.90;;
67804;SDS011;54603;45.638;11.714;2023-02-11T11:58:43;22.20;;;15.40;;
67804;SDS011;54603;45.638;11.714;2023-02-11T12:04:01;23.60;;;15.60;;
67804;SDS011;54603;45.638;11.714;2023-02-11T12:09:25;20.60;;;15.70;;
67804;SDS011;54603;45.638;11.714;2023-02-11T12:17:36;21.70;;;14.80;;
67804;SDS011;54603;45.638;11.714;2023-02-11T12:20:30;22.00;;;14.80;;
67804;SDS011;54603;45.638;11.714;2023-02-11T12:25:44;28.20;;;15.00;;
67804;SDS011;54603;45.638;11.714;2023-02-11T12:28:16;23.80;;;15.90;;
67804;SDS011;54603;45.638;11.714;2023-02-11T12:30:57;20.10;;;15.00;;
67804;SDS011;54603;45.638;11.714;2023-02-11T12:41:34;20.20;;;15.70;;
67804;SDS011;54603;45.638;11.714;2023-02-11T12:47:59;17.90;;;13.90;;
67804;SDS011;54603;45.638;11.714;2023-02-11T12:53:33;24.00;;;14.30;;
67804;SDS011;54603;45.638;11.714;2023-02-11T12:56:28;29.80;;;14.40;;
67804;SDS011;54603;45.638;11.714;2023-02-11T12:59:00;31.30;;;15.10;;
67804;SDS011;54603;45.638;11.714;2023-02-11T13:01:38;34.80;;;15.90;;
67804;SDS011;54603;45.638;11.714;2023-02-11T13:06:47;31.60;;;14.50;;
67804;SDS011;54603;45.638;11.714;2023-02-11T13:09:37;35.70;;;14.20;;
67804;SDS011;54603;45.638;11.714;2023-02-11T13:12:25;29.20;;;14.30;;
67804;SDS011;54603;45.638;11.714;2023-02-11T13:15:15;25.50;;;13.70;;
67804;SDS011;54603;45.638;11.714;2023-02-11T13:17:59;33.40;;;14.50;;
67804;SDS011;54603;45.638;11.714;2023-02-11T13:20:50;26.90;;;13.50;;
67804;SDS011;54603;45.638;11.714;2023-02-11T13:32:27;23.80;;;13.40;;
67804;SDS011;54603;45.638;11.714;2023-02-11T13:35:26;22.30;;;13.30;;
67804;SDS011;54603;45.638;11.714;2023-02-11T13:37:53;19.40;;;12.70;;
67804;SDS011;54603;45.638;11.714;2023-02-11T13:42:52;22.10;;;12.90;;
67804;SDS011;54603;45.638;11.714;2023-02-11T13:48:05;23.80;;;13.60;;
67804;SDS011;54603;45.638;11.714;2023-02-11T13:50:39;23.00;;;12.40;;
67804;SDS011;54603;45.638;11.714;2023-02-11T13:53:12;22.50;;;13.10;;
67804;SDS011;54603;45.638;11.714;2023-02-11T13:55:38;18.10;;;11.90;;
67804;SDS011;54603;45.638;11.714;2023-02-11T14:09:38;18.00;;;12.30;;
67804;SDS011;54603;45.638;11.714;2023-02-11T14:14:16;21.30;;;11.80;;
67804;SDS011;54603;45.638;11.714;2023-02-11T14:19:32;17.90;;;11.70;;
67804;SDS011;54603;45.638;11.714;2023-02-11T14:22:03;17.10;;;11.30;;
67804;SDS011;54603;45.638;11.714;2023-02-11T14:24:45;21.40;;;11.90;;
67804;SDS011;54603;45.638;11.714;2023-02-11T14:36:07;21.80;;;10.80;;
67804;SDS011;54603;45.638;11.714;2023-02-11T14:41:40;17.00;;;10.40;;
67804;SDS011;54603;45.638;11.714;2023-02-11T14:44:15;15.50;;;10.60;;
67804;SDS011;54603;45.638;11.714;2023-02-11T14:46:44;15.60;;;10.80;;
67804;SDS011;54603;45.638;11.714;2023-02-11T14:49:15;15.90;;;10.20;;
67804;SDS011;54603;45.638;11.714;2023-02-11T14:51:55;17.10;;;10.40;;
67804;SDS011;54603;45.638;11.714;2023-02-11T14:54:30;15.00;;;10.80;;
67804;SDS011;54603;45.638;11.714;2023-02-11T14:59:38;13.80;;;10.60;;
67804;SDS011;54603;45.638;11.714;2023-02-11T15:05:14;15.40;;;10.50;;
67804;SDS011;54603;45.638;11.714;2023-02-11T15:07:44;15.80;;;10.00;;
67804;SDS011;54603;45.638;11.714;2023-02-11T15:10:15;17.10;;;10.40;;
67804;SDS011;54603;45.638;11.714;2023-02-11T15:15:12;14.80;;;9.40;;
67804;SDS011;54603;45.638;11.714;2023-02-11T15:17:38;13.40;;;10.00;;
67804;SDS011;54603;45.638;11.714;2023-02-11T15:20:04;14.90;;;9.90;;
67804;SDS011;54603;45.638;11.714;2023-02-11T15:22:31;13.80;;;9.40;;
67804;SDS011;54603;45.638;11.714;2023-02-11T15:25:06;14.70;;;10.10;;
67804;SDS011;54603;45.638;11.714;2023-02-11T15:27:42;14.20;;;9.80;;
67804;SDS011;54603;45.638;11.714;2023-02-11T15:32:57;15.60;;;9.70;;
67804;SDS011;54603;45.638;11.714;2023-02-11T15:35:25;15.30;;;9.70;;
67804;SDS011;54603;45.638;11.714;2023-02-11T15:37:56;15.50;;;10.00;;
67804;SDS011;54603;45.638;11.714;2023-02-11T15:40:23;15.50;;;10.30;;
67804;SDS011;54603;45.638;11.714;2023-02-11T15:42:52;23.60;;;16.10;;
67804;SDS011;54603;45.638;11.714;2023-02-11T15:45:23;49.60;;;32.20;;
67804;SDS011;54603;45.638;11.714;2023-02-11T15:47:54;53.10;;;35.00;;
67804;SDS011;54603;45.638;11.714;2023-02-11T15:50:23;57.80;;;37.90;;
67804;SDS011;54603;45.638;11.714;2023-02-11T15:52:51;69.10;;;42.20;;
67804;SDS011;54603;45.638;11.714;2023-02-11T15:55:18;72.00;;;45.80;;
67804;SDS011;54603;45.638;11.714;2023-02-11T15:58:17;86.20;;;48.80;;
67804;SDS011;54603;45.638;11.714;2023-02-11T16:00:36;80.40;;;48.10;;
67804;SDS011;54603;45.638;11.714;2023-02-11T16:03:18;81.40;;;49.50;;
67804;SDS011;54603;45.638;11.714;2023-02-11T16:05:45;83.30;;;48.60;;
67804;SDS011;54603;45.638;11.714;2023-02-11T16:11:05;78.10;;;48.50;;
67804;SDS011;54603;45.638;11.714;2023-02-11T16:13:44;82.50;;;49.50;;
67804;SDS011;54603;45.638;11.714;2023-02-11T16:16:17;75.70;;;47.70;;
67804;SDS011;54603;45.638;11.714;2023-02-11T16:18:49;74.70;;;46.50;;
67804;SDS011;54603;45.638;11.714;2023-02-11T16:21:18;79.30;;;48.30;;
67804;SDS011;54603;45.638;11.714;2023-02-11T16:23:52;77.80;;;48.10;;
67804;SDS011;54603;45.638;11.714;2023-02-11T16:26:20;74.10;;;46.40;;
67804;SDS011;54603;45.638;11.714;2023-02-11T16:28:49;74.30;;;46.50;;
67804;SDS011;54603;45.638;11.714;2023-02-11T16:31:15;77.70;;;46.30;;
67804;SDS011;54603;45.638;11.714;2023-02-11T16:33:41;75.60;;;47.50;;
67804;SDS011;54603;45.638;11.714;2023-02-11T16:36:13;81.60;;;46.50;;
67804;SDS011;54603;45.638;11.714;2023-02-11T16:38:41;73.10;;;44.30;;
67804;SDS011;54603;45.638;11.714;2023-02-11T16:41:07;78.50;;;45.90;;
67804;SDS011;54603;45.638;11.714;2023-02-11T16:43:37;75.80;;;44.30;;
67804;SDS011;54603;45.638;11.714;2023-02-11T16:46:03;69.80;;;43.80;;
67804;SDS011;54603;45.638;11.714;2023-02-11T16:48:29;75.00;;;43.70;;
67804;SDS011;54603;45.638;11.714;2023-02-11T16:50:55;69.60;;;42.40;;
67804;SDS011;54603;45.638;11.714;2023-02-11T16:53:21;67.10;;;42.10;;